Dragonera — 9HA2475 — position and weather

sailwx.info

Track history (hours):
 
Tides and Currents Weather Stations Pressure Air Temp Water Temp Dewpoint Dewpoint Depression Visibility Wind Speed Wind Dir Waves Ship Positions

Dragonera

Last reported at 2016-Jul-27 16:27 UTC. Time now 2016-Jul-29 04:07 UTC.
Position N 49°25' E 000°52'.

Length 180 m; draft 6.8 m.

Type: Cargo ship. MMSI: 248698000.

Date/timePositionNaut miles runAvg speedWind from/ knotsBaromVisibWave heightAir tempDewpointWater temp
2016-Jul-27 16:27N 49°25' E 000°52'12 6.3
2016-Jul-27 14:33N 49°27' E 000°34'1110.9
2016-Jul-27 13:34N 49°26' E 000°17'1312.7
2016-Jul-27 12:34N 49°28' W 000°02'7 7.0
2016-Jul-27 11:34N 49°30' W 000°12'1110.7
2016-Jul-27 10:33N 49°36' W 000°26'1312.7
2016-Jul-27 09:33N 49°43' W 000°42'8111.4
2016-Jul-27 02:26N 49°51' W 002°47'1415.3
2016-Jul-27 01:31N 49°45' W 003°06'1515.3
2016-Jul-27 00:33N 49°38' W 003°26'2015.1
2016-Jul-26 23:13N 49°28' W 003°53'1415.3
2016-Jul-26 22:18N 49°21' W 004°12'1115.4
2016-Jul-26 21:33N 49°15' W 004°27'1615.3
2016-Jul-26 20:33N 49°08' W 004°48'1615.2
2016-Jul-26 19:30N 49°00' W 005°09'1414.8
2016-Jul-26 18:33N 48°52' W 005°27'10412.4
2016-Jul-26 10:09N 47°09' W 005°46'812.4
2016-Jul-26 09:31N 47°01' W 005°46'1413.1
2016-Jul-26 08:28N 46°47' W 005°46'18112.9
2016-Jul-25 18:26N 43°47' W 005°40'1010.7
2016-Jul-25 17:31N 43°37' W 005°39'0 0.4
2016-Jul-25 16:33N 43°37' W 005°39'0 0.0
2016-Jul-25 13:33N 43°37' W 005°39'0 0.0
2016-Jul-25 11:33N 43°37' W 005°39'0 0.0
2016-Jul-25 10:27N 43°37' W 005°39'0 0.0
2016-Jul-25 09:27N 43°37' W 005°39'0 0.0
2016-Jul-25 08:27N 43°37' W 005°39'0 0.0
2016-Jul-25 05:27N 43°37' W 005°39'0 0.0
2016-Jul-25 04:21N 43°37' W 005°39'0 0.1
2016-Jul-25 03:27N 43°37' W 005°39'0 0.1
2016-Jul-25 02:21N 43°37' W 005°39'0 0.0
2016-Jul-25 01:33N 43°37' W 005°39'0 0.0
2016-Jul-24 20:15N 43°37' W 005°39'0 0.0
2016-Jul-24 19:27N 43°37' W 005°39'0 0.0
2016-Jul-24 18:15N 43°37' W 005°39'0 0.0
2016-Jul-24 16:33N 43°36' W 005°39'0 0.0
2016-Jul-24 15:21N 43°37' W 005°39'0 0.0
2016-Jul-24 12:33N 43°37' W 005°39'0 0.0
2016-Jul-24 11:09N 43°37' W 005°39'0 0.0
2016-Jul-24 08:09N 43°37' W 005°39'0 0.0
2016-Jul-24 07:33N 43°37' W 005°39'0 0.0
2016-Jul-24 06:33N 43°37' W 005°39'0 0.1
2016-Jul-24 05:27N 43°36' W 005°39'0 0.0
2016-Jul-24 01:27N 43°37' W 005°39'0 0.0
2016-Jul-24 00:33N 43°37' W 005°39'0 0.1
2016-Jul-23 23:27N 43°37' W 005°39'0 0.0
2016-Jul-23 20:09N 43°37' W 005°39'0 0.0
2016-Jul-23 19:08N 43°37' W 005°39'0 0.1
2016-Jul-23 18:21N 43°37' W 005°39'0 0.0
2016-Jul-23 16:20N 43°36' W 005°39'3 3.2
2016-Jul-23 15:32N 43°35' W 005°41'0 0.1
2016-Jul-23 13:17N 43°35' W 005°41'0 0.0
2016-Jul-23 11:29N 43°35' W 005°41'0 0.0
2016-Jul-23 09:11N 43°35' W 005°41'0 0.0
2016-Jul-23 08:23N 43°35' W 005°41'0 0.0
2016-Jul-23 07:23N 43°35' W 005°41'0 0.0
2016-Jul-23 06:23N 43°35' W 005°41'0 0.0
2016-Jul-23 04:17N 43°35' W 005°41'0 0.0
2016-Jul-23 03:29N 43°35' W 005°41'0 0.0
2016-Jul-23 02:23N 43°35' W 005°41'0 0.0
2016-Jul-23 01:29N 43°35' W 005°41'0 0.0
2016-Jul-23 00:23N 43°35' W 005°41'0 0.0
2016-Jul-22 23:23N 43°35' W 005°41'0 0.0
2016-Jul-22 19:11N 43°35' W 005°41'0 0.0
2016-Jul-22 18:11N 43°35' W 005°41'0 0.0
2016-Jul-22 17:29N 43°35' W 005°41'0 0.0
2016-Jul-22 15:11N 43°35' W 005°41'0 0.0
2016-Jul-22 14:23N 43°35' W 005°41'0 0.0
2016-Jul-22 13:29N 43°35' W 005°41'0 0.0
2016-Jul-22 12:17N 43°35' W 005°41'0 0.0
2016-Jul-22 10:29N 43°35' W 005°41'0 0.0
2016-Jul-22 08:11N 43°35' W 005°41'0 0.0
2016-Jul-22 04:23N 43°35' W 005°41'0 0.0
2016-Jul-22 03:29N 43°35' W 005°41'4 3.6
2016-Jul-22 02:24N 43°38' W 005°40'5 6.1
2016-Jul-22 01:32N 43°44' W 005°41'9 8.6
2016-Jul-22 00:33N 43°48' W 005°51'1410.5
2016-Jul-21 23:10N 43°53' W 006°10'331 9.3
2016-Jul-20 11:33N 39°07' W 009°50'1312.4
2016-Jul-20 10:33N 38°54' W 009°50'1212.3
2016-Jul-20 09:34N 38°42' W 009°50'1312.5
2016-Jul-20 08:33N 38°29' W 009°48'1312.6
2016-Jul-20 07:33N 38°17' W 009°43'1312.8
2016-Jul-20 06:33N 38°05' W 009°40'1212.5
2016-Jul-20 05:33N 37°53' W 009°37'1212.1
2016-Jul-20 04:33N 37°41' W 009°34'1411.7
2016-Jul-20 03:22N 37°27' W 009°30'1311.9
2016-Jul-20 02:15N 37°14' W 009°26'912.2
2016-Jul-20 01:30N 37°05' W 009°23'2311.9
2016-Jul-19 23:33N 36°45' W 009°09'1212.1
2016-Jul-19 22:33N 36°40' W 008°55'17112.7
2016-Jul-19 09:04N 35°59' W 005°30'714.1
2016-Jul-19 08:33N 36°01' W 005°21'14112.8
2016-Jul-18 21:31N 36°22' W 002°28'6512.8
2016-Jul-18 16:27N 36°35' W 001°09'1512.9
2016-Jul-18 15:18N 36°38' W 000°50'1013.2
2016-Jul-18 14:32N 36°40' W 000°38'3812.5
2016-Jul-18 11:28N 36°46' E 000°09'2513.1
2016-Jul-18 09:32N 36°51' E 000°40'5313.2
2016-Jul-18 05:33N 37°00' E 001°45'9113.1
2016-Jul-17 22:33N 37°16' E 003°38'1312.7
2016-Jul-17 21:33N 37°17' E 003°54'1313.2
2016-Jul-17 20:33N 37°18' E 004°11'1413.9
2016-Jul-17 19:33N 37°19' E 004°28'2713.3
2016-Jul-17 17:33N 37°22' E 005°01'  
Track history (hours):
 
Tides and Currents Weather Stations Pressure Air Temp Water Temp Dewpoint Dewpoint Depression Visibility Wind Speed Wind Dir Waves Ship Positions

Dragonera

Last reported at 2016-Jul-27 16:27 UTC. Time now 2016-Jul-29 04:07 UTC.
Position N 49°25' E 000°52'.

Length 180 m; draft 6.8 m.

Type: Cargo ship. MMSI: 248698000.

Date/timePositionNaut miles runAvg speedWind from/ knotsBaromVisibWave heightAir tempDewpointWater temp
2016-Jul-27 16:27N 49°25' E 000°52'12 6.3
2016-Jul-27 14:33N 49°27' E 000°34'1110.9
2016-Jul-27 13:34N 49°26' E 000°17'1312.7
2016-Jul-27 12:34N 49°28' W 000°02'7 7.0
2016-Jul-27 11:34N 49°30' W 000°12'1110.7
2016-Jul-27 10:33N 49°36' W 000°26'1312.7
2016-Jul-27 09:33N 49°43' W 000°42'8111.4
2016-Jul-27 02:26N 49°51' W 002°47'1415.3
2016-Jul-27 01:31N 49°45' W 003°06'1515.3
2016-Jul-27 00:33N 49°38' W 003°26'2015.1
2016-Jul-26 23:13N 49°28' W 003°53'1415.3
2016-Jul-26 22:18N 49°21' W 004°12'1115.4
2016-Jul-26 21:33N 49°15' W 004°27'1615.3
2016-Jul-26 20:33N 49°08' W 004°48'1615.2
2016-Jul-26 19:30N 49°00' W 005°09'1414.8
2016-Jul-26 18:33N 48°52' W 005°27'10412.4
2016-Jul-26 10:09N 47°09' W 005°46'812.4
2016-Jul-26 09:31N 47°01' W 005°46'1413.1
2016-Jul-26 08:28N 46°47' W 005°46'18112.9
2016-Jul-25 18:26N 43°47' W 005°40'1010.7
2016-Jul-25 17:31N 43°37' W 005°39'0 0.4
2016-Jul-25 16:33N 43°37' W 005°39'0 0.0
2016-Jul-25 13:33N 43°37' W 005°39'0 0.0
2016-Jul-25 11:33N 43°37' W 005°39'0 0.0
2016-Jul-25 10:27N 43°37' W 005°39'0 0.0
2016-Jul-25 09:27N 43°37' W 005°39'0 0.0
2016-Jul-25 08:27N 43°37' W 005°39'0 0.0
2016-Jul-25 05:27N 43°37' W 005°39'0 0.0
2016-Jul-25 04:21N 43°37' W 005°39'0 0.1
2016-Jul-25 03:27N 43°37' W 005°39'0 0.1
2016-Jul-25 02:21N 43°37' W 005°39'0 0.0
2016-Jul-25 01:33N 43°37' W 005°39'0 0.0
2016-Jul-24 20:15N 43°37' W 005°39'0 0.0
2016-Jul-24 19:27N 43°37' W 005°39'0 0.0
2016-Jul-24 18:15N 43°37' W 005°39'0 0.0
2016-Jul-24 16:33N 43°36' W 005°39'0 0.0
2016-Jul-24 15:21N 43°37' W 005°39'0 0.0
2016-Jul-24 12:33N 43°37' W 005°39'0 0.0
2016-Jul-24 11:09N 43°37' W 005°39'0 0.0
2016-Jul-24 08:09N 43°37' W 005°39'0 0.0
2016-Jul-24 07:33N 43°37' W 005°39'0 0.0
2016-Jul-24 06:33N 43°37' W 005°39'0 0.1
2016-Jul-24 05:27N 43°36' W 005°39'0 0.0
2016-Jul-24 01:27N 43°37' W 005°39'0 0.0
2016-Jul-24 00:33N 43°37' W 005°39'0 0.1
2016-Jul-23 23:27N 43°37' W 005°39'0 0.0
2016-Jul-23 20:09N 43°37' W 005°39'0 0.0
2016-Jul-23 19:08N 43°37' W 005°39'0 0.1
2016-Jul-23 18:21N 43°37' W 005°39'0 0.0
2016-Jul-23 16:20N 43°36' W 005°39'3 3.2
2016-Jul-23 15:32N 43°35' W 005°41'0 0.1
2016-Jul-23 13:17N 43°35' W 005°41'0 0.0
2016-Jul-23 11:29N 43°35' W 005°41'0 0.0
2016-Jul-23 09:11N 43°35' W 005°41'0 0.0
2016-Jul-23 08:23N 43°35' W 005°41'0 0.0
2016-Jul-23 07:23N 43°35' W 005°41'0 0.0
2016-Jul-23 06:23N 43°35' W 005°41'0 0.0
2016-Jul-23 04:17N 43°35' W 005°41'0 0.0
2016-Jul-23 03:29N 43°35' W 005°41'0 0.0
2016-Jul-23 02:23N 43°35' W 005°41'0 0.0
2016-Jul-23 01:29N 43°35' W 005°41'0 0.0
2016-Jul-23 00:23N 43°35' W 005°41'0 0.0
2016-Jul-22 23:23N 43°35' W 005°41'0 0.0
2016-Jul-22 19:11N 43°35' W 005°41'0 0.0
2016-Jul-22 18:11N 43°35' W 005°41'0 0.0
2016-Jul-22 17:29N 43°35' W 005°41'0 0.0
2016-Jul-22 15:11N 43°35' W 005°41'0 0.0
2016-Jul-22 14:23N 43°35' W 005°41'0 0.0
2016-Jul-22 13:29N 43°35' W 005°41'0 0.0
2016-Jul-22 12:17N 43°35' W 005°41'0 0.0
2016-Jul-22 10:29N 43°35' W 005°41'0 0.0
2016-Jul-22 08:11N 43°35' W 005°41'0 0.0
2016-Jul-22 04:23N 43°35' W 005°41'0 0.0
2016-Jul-22 03:29N 43°35' W 005°41'4 3.6
2016-Jul-22 02:24N 43°38' W 005°40'5 6.1
2016-Jul-22 01:32N 43°44' W 005°41'9 8.6
2016-Jul-22 00:33N 43°48' W 005°51'1410.5
2016-Jul-21 23:10N 43°53' W 006°10'331 9.3
2016-Jul-20 11:33N 39°07' W 009°50'1312.4
2016-Jul-20 10:33N 38°54' W 009°50'1212.3
2016-Jul-20 09:34N 38°42' W 009°50'1312.5
2016-Jul-20 08:33N 38°29' W 009°48'1312.6
2016-Jul-20 07:33N 38°17' W 009°43'1312.8
2016-Jul-20 06:33N 38°05' W 009°40'1212.5
2016-Jul-20 05:33N 37°53' W 009°37'1212.1
2016-Jul-20 04:33N 37°41' W 009°34'1411.7
2016-Jul-20 03:22N 37°27' W 009°30'1311.9
2016-Jul-20 02:15N 37°14' W 009°26'912.2
2016-Jul-20 01:30N 37°05' W 009°23'2311.9
2016-Jul-19 23:33N 36°45' W 009°09'1212.1
2016-Jul-19 22:33N 36°40' W 008°55'17112.7
2016-Jul-19 09:04N 35°59' W 005°30'714.1
2016-Jul-19 08:33N 36°01' W 005°21'14112.8
2016-Jul-18 21:31N 36°22' W 002°28'6512.8
2016-Jul-18 16:27N 36°35' W 001°09'1512.9
2016-Jul-18 15:18N 36°38' W 000°50'1013.2
2016-Jul-18 14:32N 36°40' W 000°38'3812.5
2016-Jul-18 11:28N 36°46' E 000°09'2513.1
2016-Jul-18 09:32N 36°51' E 000°40'5313.2
2016-Jul-18 05:33N 37°00' E 001°45'9113.1
2016-Jul-17 22:33N 37°16' E 003°38'1312.7
2016-Jul-17 21:33N 37°17' E 003°54'1313.2
2016-Jul-17 20:33N 37°18' E 004°11'1413.9
2016-Jul-17 19:33N 37°19' E 004°28'2713.3
2016-Jul-17 17:33N 37°22' E 005°01'  

Dump ship's entire track history